Etusivu
METAR-TAF:

METAR-TAF

Lentoasemat :

Umeå, Ruotsi

Uumajan lentoasema

Leveyspiiri: 63-48N, Pituuspiiri: 020-17E, korkeus merenpinnasta: 7 m

Tämänhetkinen sää

Tämä raportti tehtiin 10 minuuttia sitten, kello 04.50 UTC
Tuuli 9 kn pohjoisen/luoteesta
Lämpötila 9°C
Kosteus 61%
Ilmanpaine 1011 hPa
Näkyvyys 10 km tai enemmän
ei pilviä alle 1500 m:ssä eikä cumulonimbus-pilviä

METAR: ESNU 230450Z 34009KT CAVOK 09/02 Q1011

Aika: 07:00 (05:00 UTC)

Sääennuste

Tämä raportti tehtiin 2 tuntia ja 30 minuuttia sitten, kello 02.30 UTC
Ennuste voimassa 23. päivästä klo 03 UTC - 23. päivään klo 12 UTC
Tuuli 6 kn luoteesta
Näkyvyys 10 km tai enemmän
ei pilviä alle 1500 m:ssä eikä cumulonimbus-pilviä
Tulossa
23. päivästä klo 04 UTC - 23. päivään klo 06 UTC
Tuuli 10 kn koillisesta

TAF: ESNU 230230Z 2303/2312 32006KT CAVOK BECMG 2304/2306 04010KT

Säähavainnot ja -ennusteet yli 4000 lentoasemalta (METAR- ja TAF-raportit).

Käytössä olevat sääasemat on merkitty karttaan keltaisilla ja punaisilla pisteillä.

Aseta hiiri pisteen päälle nähdäksesi sääaseman nimen.

Klikkaa sitten nähdäksesi säähavainnot ja -ennusteet.

Kartan vaihtaminen: klikkaa mustalla rastilla varustettuja vihreitä pisteitä, niin voit zoomata sisään; viivalla varustettua vihreää pistettä, niin voit zoomata ulos tai vihreitä nuolia, niin pääset viereisille kartoille.


METAR-TAF: